Hauptseite
METAR-TAF:

METAR-TAF

Flughäfen :

Resolute, Nunavut, Kanada

Flughafen Resolute Bay

Breite: 74-43N, Länge: 094-59W, Höhe: 67 m

Beobachtung

Neuester Wetterbericht von vor 54 Minuten, um 07:00 UTC
Wind 7 kt aus Ost
Temperatur 4°C
Luftfeuchtigkeit 56%
Luftdruck 1017 hPa
Sichtweite: 24.1 km
Leicht bewölkt in der Höhe von 19000 ft

METAR: CYRB 170700Z 10007KT 15SM FEW190 04/M04 A3002 RMK AS1 SLP172

Zeit: 02:54 (07:54 UTC)

Prognose

Neuester Wetterbericht von vor 2 Stunden und 15 Minuten, um 05:39 UTC
Gültige Prognose vom 17 um 06 UTC bis 18 um 06 UTC
Wind 12 kt aus Ost/Nordost
Sichtweite: 10 km
Leicht bewölkt in der Höhe von 18000 ft
Übergehend zu
vom 17 um 15 UTC bis 17 um 17 UTC
Wind 15 kt aus Ost

TAF: CYRB 170539Z 1706/1806 07012KT P6SM FEW180 BECMG 1715/1717 10015KT RMK NXT FCST BY 171200Z

Wetterbeobachtungen und Prognosen von mehr als 4000 Flughäfen (METAR und TAF Bericht).

Die verfügbaren Stationen werden durch gelbe und rote Markierungen auf der Karte dargestellt.

Führen Sie die Maus auf sie, um den Namen der Station zu sehen.

Darauf klicken, um die Beobachtung von Wetterbeobachtungen und Prognosen zu sehen.

Um die Karte zu ändern : klicken Sie auf den grünen Tasten mit einem schwarzen Kreuz Zum Vergrößern, auf den grünen Button mit einem Gedankenstrich zu verkleinern, oder auf die grünen Pfeile für benachbarte Karten.


METAR-TAF: